Time;durP1;ratioP1;P1;durP2;ratioP2;P2;SDS_P1;SDS_P2;PMS_P1;PMS_P2;Temp;Humidity;BMP_temperature;BMP_pressure;BME280_temperature;BME280_humidity;BME280_pressure;Samples;Min_cycle;Max_cycle;Signal;HPM_P1;HPM_P2
2023/07/25 00:01:29;;;;;;;;;8.40;7.40;;;;;23.51;100.00;97488.41;6244209;27;96951;-70
2023/07/25 00:04:33;;;;;;;;;10.00;8.00;;;;;23.56;100.00;97489.00;6242983;27;98573;-70
2023/07/25 00:07:36;;;;;;;;;7.00;6.00;;;;;23.57;100.00;97490.63;6247687;27;99161;-71
2023/07/25 00:10:39;;;;;;;;;8.00;7.00;;;;;23.59;100.00;97482.03;6256124;27;96338;-70
2023/07/25 00:13:44;;;;;;;;;9.40;7.80;;;;;23.58;100.00;97481.22;6265238;27;99087;-70
2023/07/25 00:16:47;;;;;;;;;9.50;7.00;;;;;23.60;100.00;97486.41;6263670;27;96905;-71
2023/07/25 00:19:51;;;;;;;;;6.20;6.00;;;;;23.62;100.00;97486.84;6240084;27;97891;-71
2023/07/25 00:22:54;;;;;;;;;7.00;7.00;;;;;23.63;100.00;97486.50;6240092;27;96338;-71
2023/07/25 00:25:58;;;;;;;;;10.40;9.40;;;;;23.54;100.00;97471.25;6239847;28;97566;-71
2023/07/25 00:29:02;;;;;;;;;7.00;7.00;;;;;23.58;100.00;97483.97;6229962;27;99173;-70
2023/07/25 00:32:06;;;;;;;;;8.00;7.00;;;;;23.42;100.00;97482.16;6249551;27;96512;-70
2023/07/25 00:35:10;;;;;;;;;6.20;6.00;;;;;23.54;100.00;97483.06;6247577;27;97086;-70
2023/07/25 00:38:13;;;;;;;;;8.00;7.00;;;;;23.54;100.00;97482.25;6264394;27;97023;-69
2023/07/25 00:41:16;;;;;;;;;10.00;9.00;;;;;23.52;100.00;97490.81;6261931;27;97039;-70
2023/07/25 00:44:21;;;;;;;;;7.00;7.00;;;;;23.44;100.00;97471.66;6225499;27;96896;-70
2023/07/25 00:47:24;;;;;;;;;9.40;8.40;;;;;23.52;100.00;97481.78;6264870;27;96557;-71
2023/07/25 00:50:28;;;;;;;;;8.40;7.00;;;;;23.51;100.00;97491.16;6251632;27;96325;-70
2023/07/25 00:53:31;;;;;;;;;8.00;6.00;;;;;23.51;100.00;97483.72;6239447;28;96916;-71
2023/07/25 00:56:35;;;;;;;;;9.00;8.00;;;;;23.52;100.00;97479.03;6239707;27;96585;-70
2023/07/25 00:59:40;;;;;;;;;7.00;7.00;;;;;23.52;100.00;97485.31;6229531;27;97075;-70
2023/07/25 01:02:43;;;;;;;;;7.50;7.00;;;;;23.53;100.00;97475.94;6264492;27;96343;-70
2023/07/25 01:05:49;;;;;;;;;8.00;8.00;;;;;23.53;100.00;97472.38;6263905;27;96549;-70
2023/07/25 01:08:56;;;;;;;;;7.40;7.00;;;;;23.50;100.00;97467.56;6262593;27;96295;-70
2023/07/25 01:11:59;;;;;;;;;7.00;6.00;;;;;23.50;100.00;97478.56;6241180;27;96313;-70
2023/07/25 01:15:04;;;;;;;;;8.00;6.50;;;;;23.45;100.00;97476.03;6226469;27;98449;-70
2023/07/25 01:18:08;;;;;;;;;9.00;7.00;;;;;23.25;100.00;97452.91;6264311;27;96585;-70
2023/07/25 01:21:12;;;;;;;;;10.25;8.50;;;;;23.31;100.00;97482.59;6257085;27;96353;-70
2023/07/25 01:24:18;;;;;;;;;9.00;8.00;;;;;23.30;100.00;97481.00;6263565;27;97145;-70
2023/07/25 01:27:21;;;;;;;;;12.20;11.60;;;;;23.33;100.00;97482.25;6254516;27;96680;-70
2023/07/25 01:30:24;;;;;;;;;8.00;6.60;;;;;23.18;100.00;97456.19;6255802;27;96909;-71
2023/07/25 01:33:27;;;;;;;;;11.00;10.75;;;;;23.36;100.00;97483.53;6241628;27;96912;-70
2023/07/25 01:36:31;;;;;;;;;10.00;9.00;;;;;23.39;100.00;97491.91;6241713;27;98732;-71
2023/07/25 01:39:35;;;;;;;;;9.80;9.00;;;;;23.40;100.00;97498.22;6255926;27;96391;-70
2023/07/25 01:42:38;;;;;;;;;11.00;8.00;;;;;23.37;100.00;97496.13;6244325;27;96322;-70
2023/07/25 01:45:42;;;;;;;;;8.67;8.00;;;;;23.32;100.00;97502.66;6262764;27;96536;-70
2023/07/25 01:48:45;;;;;;;;;9.00;7.00;;;;;23.27;100.00;97502.84;6239380;27;96298;-70
2023/07/25 01:51:48;;;;;;;;;8.60;8.00;;;;;23.27;100.00;97503.66;6233854;27;96707;-70
2023/07/25 01:54:54;;;;;;;;;9.00;8.40;;;;;23.10;100.00;97492.03;6264688;27;96452;-70
2023/07/25 01:57:58;;;;;;;;;9.00;8.00;;;;;23.28;100.00;97515.47;6261611;27;98443;-70
2023/07/25 02:01:01;;;;;;;;;10.75;9.50;;;;;23.28;100.00;97521.78;6254771;27;96346;-70
2023/07/25 02:04:05;;;;;;;;;12.40;11.00;;;;;23.28;100.00;97520.97;6238068;28;96949;-70
2023/07/25 02:07:09;;;;;;;;;10.00;9.00;;;;;23.01;100.00;97492.09;6237654;27;96756;-70
2023/07/25 02:10:14;;;;;;;;;9.00;8.00;;;;;23.21;100.00;97518.75;6252807;27;96380;-70
2023/07/25 02:13:17;;;;;;;;;9.60;8.00;;;;;23.20;100.00;97516.34;6264286;27;97002;-70
2023/07/25 02:16:20;;;;;;;;;9.25;8.25;;;;;23.24;100.00;97523.59;6241829;27;96666;-71
2023/07/25 02:19:23;;;;;;;;;10.40;8.20;;;;;23.29;100.00;97522.59;6263357;27;96942;-70
2023/07/25 02:22:27;;;;;;;;;9.80;9.40;;;;;23.10;100.00;97506.56;6245460;27;96542;-70
2023/07/25 02:25:33;;;;;;;;;10.00;9.00;;;;;23.19;100.00;97534.78;6241886;27;96273;-70
2023/07/25 02:28:36;;;;;;;;;8.50;8.00;;;;;23.09;100.00;97535.19;6242408;27;96751;-70
2023/07/25 02:31:39;;;;;;;;;10.00;9.40;;;;;22.99;100.00;97530.09;6240519;27;96770;-71
2023/07/25 02:34:43;;;;;;;;;10.00;9.00;;;;;22.91;100.00;97532.91;6262343;27;96359;-70
2023/07/25 02:37:46;;;;;;;;;8.60;7.60;;;;;22.86;100.00;97542.97;6263184;27;96502;-70
2023/07/25 02:40:51;;;;;;;;;9.00;8.60;;;;;22.87;100.00;97533.56;6252719;27;97484;-70
2023/07/25 02:43:54;;;;;;;;;10.00;8.00;;;;;22.89;100.00;97533.25;6221327;27;96844;-71
2023/07/25 02:46:57;;;;;;;;;10.00;8.00;;;;;22.92;100.00;97524.31;6246391;27;97331;-70
2023/07/25 02:50:01;;;;;;;;;8.50;6.50;;;;;23.02;100.00;97531.41;6250035;27;97038;-70
2023/07/25 02:53:04;;;;;;;;;10.00;9.00;;;;;23.01;100.00;97530.59;6261132;27;96962;-70
2023/07/25 02:56:08;;;;;;;;;9.00;8.00;;;;;23.06;100.00;97530.38;6261825;27;98816;-70
2023/07/25 02:59:11;;;;;;;;;11.00;9.40;;;;;23.09;100.00;97537.13;6253570;27;98826;-70
2023/07/25 03:02:15;;;;;;;;;9.00;8.00;;;;;23.11;100.00;97532.13;6249746;27;97138;-70
2023/07/25 03:05:18;;;;;;;;;8.60;7.60;;;;;23.12;100.00;97550.19;6238337;28;97614;-71
2023/07/25 03:08:22;;;;;;;;;7.20;6.20;;;;;23.07;100.00;97531.16;6248538;27;96321;-70
2023/07/25 03:11:26;;;;;;;;;9.40;8.40;;;;;23.16;100.00;97529.97;6242411;27;97391;-71
2023/07/25 03:14:30;;;;;;;;;9.80;8.80;;;;;23.18;100.00;97537.88;6253603;27;99787;-71
2023/07/25 03:17:33;;;;;;;;;8.00;8.00;;;;;23.21;100.00;97537.22;6254975;27;96941;-70
2023/07/25 03:20:36;;;;;;;;;11.00;10.00;;;;;23.06;100.00;97535.06;6241537;27;99222;-67
2023/07/25 03:23:40;;;;;;;;;10.00;9.00;;;;;23.11;100.00;97538.44;6242572;27;98407;-70
2023/07/25 03:26:44;;;;;;;;;10.00;8.00;;;;;23.13;100.00;97532.56;6250487;27;96492;-70
2023/07/25 03:29:48;;;;;;;;;11.00;9.60;;;;;23.17;100.00;97531.56;6249426;27;100289;-70
2023/07/25 03:32:52;;;;;;;;;8.40;7.60;;;;;23.23;100.00;97524.72;6239637;27;98609;-70
2023/07/25 03:35:55;;;;;;;;;10.60;9.00;;;;;23.24;100.00;97525.53;6245806;27;96826;-71
2023/07/25 03:38:59;;;;;;;;;9.60;8.60;;;;;23.24;100.00;97515.34;6249278;27;96600;-71
2023/07/25 03:42:04;;;;;;;;;9.60;8.60;;;;;23.27;100.00;97520.16;6253892;27;97625;-70
2023/07/25 03:45:08;;;;;;;;;9.00;8.00;;;;;23.32;100.00;97519.94;6231933;27;96946;-71
2023/07/25 03:48:12;;;;;;;;;8.00;8.00;;;;;23.38;100.00;97528.81;6223549;27;97013;-70
2023/07/25 03:51:15;;;;;;;;;10.00;8.50;;;;;23.41;100.00;97528.13;6253125;27;96589;-70
2023/07/25 03:54:21;;;;;;;;;9.00;7.00;;;;;23.47;100.00;97531.50;6259262;27;96408;-70
2023/07/25 03:57:26;;;;;;;;;10.20;9.00;;;;;23.41;100.00;97525.38;6254561;27;98275;-70
2023/07/25 04:00:29;;;;;;;;;10.80;9.00;;;;;23.40;100.00;97522.97;6256129;27;96660;-70
2023/07/25 04:03:32;;;;;;;;;9.80;8.20;;;;;23.45;100.00;97533.78;6252874;27;96962;-70
2023/07/25 04:06:37;;;;;;;;;9.00;8.00;;;;;23.50;100.00;97537.16;6241903;27;96681;-70
2023/07/25 04:09:41;;;;;;;;;10.75;8.75;;;;;23.49;100.00;97541.03;6239773;27;96263;-70
2023/07/25 04:12:46;;;;;;;;;9.00;8.00;;;;;23.48;100.00;97546.84;6251071;27;97850;-70
2023/07/25 04:15:49;;;;;;;;;12.00;10.00;;;;;23.44;100.00;97548.66;6235464;27;96736;-70
2023/07/25 04:18:52;;;;;;;;;10.00;9.00;;;;;23.47;100.00;97546.06;6251983;27;97314;-70
2023/07/25 04:21:56;;;;;;;;;10.00;9.00;;;;;23.53;100.00;97546.66;6242957;27;96420;-70
2023/07/25 04:24:59;;;;;;;;;11.00;9.00;;;;;23.56;100.00;97529.47;6252411;27;96909;-70
2023/07/25 04:28:04;;;;;;;;;7.00;7.00;;;;;23.58;100.00;97535.44;6230049;27;96775;-71
2023/07/25 04:31:07;;;;;;;;;8.00;7.00;;;;;23.53;100.00;97543.91;6254800;27;96668;-71
2023/07/25 04:34:10;;;;;;;;;9.00;8.00;;;;;23.52;100.00;97537.59;6228021;27;98980;-70
2023/07/25 04:37:14;;;;;;;;;9.25;8.00;;;;;23.50;100.00;97536.34;6247070;27;96402;-70
2023/07/25 04:40:17;;;;;;;;;10.00;10.00;;;;;23.55;100.00;97530.63;6254329;27;96683;-70
2023/07/25 04:43:22;;;;;;;;;10.00;8.40;;;;;23.52;100.00;97536.78;6249994;27;96931;-71
2023/07/25 04:46:25;;;;;;;;;11.00;9.40;;;;;23.64;100.00;97545.09;6232941;27;97316;-70
2023/07/25 04:49:28;;;;;;;;;8.50;8.00;;;;;23.73;100.00;97532.84;6262126;27;96549;-70
2023/07/25 04:52:31;;;;;;;;;12.40;11.40;;;;;23.75;100.00;97533.31;6259795;27;96331;-71
2023/07/25 04:55:35;;;;;;;;;9.25;8.00;;;;;23.82;100.00;97531.94;6262694;27;96711;-70
2023/07/25 04:58:40;;;;;;;;;10.00;8.75;;;;;23.84;100.00;97547.00;6242582;27;96825;-70
2023/07/25 05:01:44;;;;;;;;;11.00;9.60;;;;;23.90;100.00;97545.59;6254547;27;97775;-70
2023/07/25 05:04:48;;;;;;;;;11.00;10.00;;;;;23.89;100.00;97541.28;6264954;27;96403;-70
2023/07/25 05:07:51;;;;;;;;;11.00;9.20;;;;;23.92;100.00;97542.53;6261955;27;96888;-70
2023/07/25 05:10:55;;;;;;;;;10.00;7.67;;;;;23.96;100.00;97549.75;6252383;27;96550;-70
2023/07/25 05:14:00;;;;;;;;;10.00;8.00;;;;;23.97;100.00;97545.06;6260678;27;96535;-70
2023/07/25 05:17:03;;;;;;;;;10.00;8.60;;;;;24.07;100.00;97553.69;6259315;27;97664;-70
2023/07/25 05:20:07;;;;;;;;;9.40;7.00;;;;;24.14;100.00;97559.41;6255346;27;96683;-70
2023/07/25 05:23:11;;;;;;;;;7.00;7.00;;;;;24.06;100.00;97527.28;6246666;27;96386;-69
2023/07/25 05:26:14;;;;;;;;;7.60;7.00;;;;;24.26;100.00;97531.13;6262783;27;97025;-70
2023/07/25 05:29:18;;;;;;;;;10.00;9.00;;;;;24.45;100.00;97541.56;6256620;27;96685;-69
2023/07/25 05:32:22;;;;;;;;;11.20;9.80;;;;;24.63;100.00;97542.16;6254003;27;96680;-70
2023/07/25 05:35:26;;;;;;;;;8.40;8.40;;;;;24.73;100.00;97533.41;6264478;27;96387;-70
2023/07/25 05:38:29;;;;;;;;;9.00;8.60;;;;;24.78;100.00;97533.16;6240782;27;98300;-70
2023/07/25 05:41:34;;;;;;;;;10.20;9.80;;;;;24.93;100.00;97546.25;6253006;27;96427;-70
2023/07/25 05:44:39;;;;;;;;;9.00;8.20;;;;;25.06;100.00;97536.81;6249980;27;96418;-70
2023/07/25 05:47:44;;;;;;;;;10.00;9.60;;;;;25.14;100.00;97524.84;6251053;27;97801;-70
2023/07/25 05:50:50;;;;;;;;;10.00;9.00;;;;;25.33;100.00;97518.69;6245277;27;98177;-70
2023/07/25 05:53:54;;;;;;;;;11.00;9.50;;;;;25.34;100.00;97520.28;6251407;27;98754;-70
2023/07/25 05:56:57;;;;;;;;;11.00;10.00;;;;;25.32;100.00;97528.09;6251177;27;96299;-69
2023/07/25 06:00:02;;;;;;;;;10.00;9.00;;;;;25.38;100.00;97535.00;6238640;27;98995;-69
2023/07/25 06:03:07;;;;;;;;;10.20;8.80;;;;;25.49;100.00;97546.34;6246460;27;97439;-70
2023/07/25 06:06:10;;;;;;;;;10.00;8.00;;;;;25.58;100.00;97547.00;6246061;27;96977;-70
2023/07/25 06:09:13;;;;;;;;;12.60;10.00;;;;;25.72;100.00;97536.34;6251249;27;96337;-70
2023/07/25 06:12:17;;;;;;;;;9.00;8.00;;;;;25.75;100.00;97514.38;6243552;27;98569;-71
2023/07/25 06:15:22;;;;;;;;;9.00;8.00;;;;;26.06;100.00;97538.44;6249251;27;97788;-70
2023/07/25 06:18:25;;;;;;;;;10.00;10.00;;;;;26.12;100.00;97539.81;6263646;27;96425;-70
2023/07/25 06:21:28;;;;;;;;;12.40;9.80;;;;;25.90;100.00;97517.53;6258545;27;96561;-70
2023/07/25 06:24:32;;;;;;;;;11.00;10.00;;;;;26.18;100.00;97552.19;6251428;27;96724;-70
2023/07/25 06:27:36;;;;;;;;;12.00;8.00;;;;;26.25;100.00;97549.63;6233882;27;96479;-70
2023/07/25 06:30:40;;;;;;;;;9.25;8.25;;;;;26.27;100.00;97552.03;6248645;27;98607;-71
2023/07/25 06:33:43;;;;;;;;;8.60;8.00;;;;;26.26;100.00;97545.72;6254700;27;96424;-71
2023/07/25 06:36:47;;;;;;;;;8.00;7.40;;;;;26.40;100.00;97561.03;6236776;27;98045;-71
2023/07/25 06:39:50;;;;;;;;;15.60;12.00;;;;;26.41;100.00;97560.69;6236257;28;98486;-70
2023/07/25 06:42:53;;;;;;;;;7.80;7.80;;;;;26.43;100.00;97558.38;6245225;27;97499;-70
2023/07/25 06:45:59;;;;;;;;;9.40;8.00;;;;;26.53;100.00;97555.06;6236771;28;97379;-70
2023/07/25 06:49:03;;;;;;;;;10.00;7.00;;;;;26.73;100.00;97548.41;6248413;27;97613;-70
2023/07/25 06:52:07;;;;;;;;;9.00;8.00;;;;;26.83;100.00;97555.38;6259774;27;96437;-70
2023/07/25 06:55:10;;;;;;;;;9.60;8.00;;;;;26.79;100.00;97559.22;6219782;28;98526;-70
2023/07/25 06:58:14;;;;;;;;;13.00;11.00;;;;;26.71;100.00;97533.38;6268692;27;96411;-71
2023/07/25 07:01:19;;;;;;;;;11.00;9.00;;;;;26.96;100.00;97554.13;6240512;27;98401;-71
2023/07/25 07:04:22;;;;;;;;;6.80;5.80;;;;;27.24;100.00;97545.66;6254076;27;97163;-71
2023/07/25 07:07:26;;;;;;;;;8.50;7.50;;;;;27.37;100.00;97552.63;6238240;27;96622;-71
2023/07/25 07:10:29;;;;;;;;;7.60;7.00;;;;;27.48;100.00;97544.56;6236250;28;97125;-71
2023/07/25 07:13:32;;;;;;;;;11.00;9.00;;;;;27.54;100.00;97534.81;6220551;27;98443;-71
2023/07/25 07:16:37;;;;;;;;;9.40;8.00;;;;;27.58;100.00;97536.50;6248527;27;96175;-71
2023/07/25 07:19:40;;;;;;;;;8.00;7.00;;;;;27.80;100.00;97531.38;6245226;27;97570;-71
2023/07/25 07:22:43;;;;;;;;;8.60;8.60;;;;;27.99;100.00;97536.88;6246377;27;96393;-72
2023/07/25 07:25:47;;;;;;;;;8.40;7.40;;;;;28.17;100.00;97540.78;6244019;27;96983;-71
2023/07/25 07:28:50;;;;;;;;;8.20;7.20;;;;;28.29;100.00;97535.06;6250898;27;96217;-72
2023/07/25 07:31:54;;;;;;;;;9.00;8.00;;;;;28.40;100.00;97521.38;6249828;27;96358;-72
2023/07/25 07:34:58;;;;;;;;;8.00;7.20;;;;;28.49;100.00;97516.38;6235022;27;96754;-72
2023/07/25 07:38:03;;;;;;;;;9.00;9.00;;;;;28.87;100.00;97520.94;6249294;27;96471;-72
2023/07/25 07:41:06;;;;;;;;;8.00;7.00;;;;;29.07;100.00;97522.41;6257677;27;97240;-72
2023/07/25 07:44:09;;;;;;;;;7.00;7.00;;;;;29.07;100.00;97502.19;6247757;27;97104;-72
2023/07/25 07:47:14;;;;;;;;;9.00;8.00;;;;;29.34;100.00;97506.53;6245437;27;99041;-71
2023/07/25 07:50:33;;;;;;;;;9.20;8.20;;;;;29.43;100.00;97509.81;6244145;27;96355;-71
2023/07/25 07:53:38;;;;;;;;;8.00;8.00;;;;;29.62;100.00;97523.50;6236038;28;96825;-71
2023/07/25 07:56:41;;;;;;;;;7.40;6.40;;;;;29.67;100.00;97531.50;6251772;27;97042;-71
2023/07/25 07:59:44;;;;;;;;;6.60;6.00;;;;;29.66;100.00;97538.22;6262572;27;96374;-71
2023/07/25 08:02:49;;;;;;;;;9.00;7.00;;;;;29.68;100.00;97538.66;6260599;27;96618;-71
2023/07/25 08:05:56;;;;;;;;;6.00;6.00;;;;;29.49;100.00;97533.28;6261261;27;97043;-72
2023/07/25 08:08:59;;;;;;;;;6.00;6.00;;;;;29.58;100.00;97521.88;6244191;27;97863;-72
2023/07/25 08:12:04;;;;;;;;;5.00;5.00;;;;;29.67;100.00;97523.19;6260981;27;96585;-72
2023/07/25 08:15:08;;;;;;;;;6.00;5.00;;;;;29.81;100.00;97521.75;6244376;27;98862;-72
2023/07/25 08:18:13;;;;;;;;;9.00;8.40;;;;;29.95;100.00;97506.06;6264186;27;97465;-72
2023/07/25 08:21:17;;;;;;;;;8.25;6.25;;;;;30.25;100.00;97496.78;6267612;27;96671;-72
2023/07/25 08:24:20;;;;;;;;;8.20;6.20;;;;;30.68;100.00;97495.97;6266606;27;97647;-72
2023/07/25 08:27:23;;;;;;;;;7.20;6.00;;;;;31.18;100.00;97487.91;6268405;27;96680;-71
2023/07/25 08:30:26;;;;;;;;;8.25;7.00;;;;;31.42;100.00;97499.13;6249291;27;98868;-72
2023/07/25 08:33:32;;;;;;;;;7.00;5.00;;;;;31.67;100.00;97502.03;6267518;27;96283;-72
2023/07/25 08:36:35;;;;;;;;;7.60;6.60;;;;;31.93;100.00;97514.03;6265381;27;96438;-72
2023/07/25 08:39:38;;;;;;;;;7.60;7.00;;;;;31.77;100.00;97506.84;6256156;27;96436;-72
2023/07/25 08:42:43;;;;;;;;;7.20;7.20;;;;;31.96;100.00;97508.47;6264631;27;96388;-72
2023/07/25 08:45:49;;;;;;;;;7.60;7.00;;;;;32.31;100.00;97516.09;6242045;27;96442;-72
2023/07/25 08:48:58;;;;;;;;;7.60;7.00;;;;;32.45;100.00;97527.25;6250852;27;96990;-71
2023/07/25 08:52:03;;;;;;;;;8.00;7.00;;;;;32.57;100.00;97532.44;6240518;27;96768;-71
2023/07/25 08:55:07;;;;;;;;;8.60;8.60;;;;;32.91;100.00;97541.22;6239401;28;98984;-72
2023/07/25 08:58:11;;;;;;;;;7.00;7.00;;;;;32.94;100.00;97537.59;6242297;28;96481;-71
2023/07/25 09:01:14;;;;;;;;;8.00;7.00;;;;;32.97;100.00;97531.25;6258305;27;96366;-71
2023/07/25 09:04:20;;;;;;;;;7.00;7.00;;;;;33.05;100.00;97510.47;6265135;27;98882;-71
2023/07/25 09:07:24;;;;;;;;;8.00;7.00;;;;;33.03;100.00;97520.47;6264670;27;96339;-71
2023/07/25 09:10:28;;;;;;;;;7.20;6.20;;;;;33.06;100.00;97509.28;6258189;27;98537;-71
2023/07/25 09:13:32;;;;;;;;;8.00;6.50;;;;;33.26;100.00;97497.66;6248954;27;96710;-72
2023/07/25 09:16:35;;;;;;;;;7.25;7.25;;;;;33.32;100.00;97491.28;6257848;27;96746;-71
2023/07/25 09:19:41;;;;;;;;;7.75;7.00;;;;;33.54;100.00;97489.16;6265650;27;96787;-71
2023/07/25 09:22:47;;;;;;;;;9.00;8.00;;;;;33.92;100.00;97485.38;6265582;27;96319;-72
2023/07/25 09:26:03;;;;;;;;;7.20;6.60;;;;;34.01;100.00;97481.34;6265280;27;96302;-72
2023/07/25 09:29:06;;;;;;;;;8.00;7.20;;;;;34.08;100.00;97482.06;6264694;27;96319;-72
2023/07/25 09:32:18;;;;;;;;;8.00;8.00;;;;;34.16;100.00;97478.00;6260985;27;96445;-72
2023/07/25 09:35:24;;;;;;;;;7.25;7.00;;;;;34.19;100.00;97482.03;6247024;27;98437;-72
2023/07/25 09:38:28;;;;;;;;;8.00;8.00;;;;;34.48;100.00;97488.16;6243617;28;96957;-73
2023/07/25 09:41:31;;;;;;;;;8.00;7.00;;;;;34.85;100.00;97488.22;6245379;28;96459;-73
2023/07/25 09:44:35;;;;;;;;;9.00;9.00;;;;;35.04;100.00;97489.66;6244095;27;96322;-73
2023/07/25 09:47:39;;;;;;;;;9.75;8.75;;;;;35.17;100.00;97491.53;6243904;28;96389;-73
2023/07/25 09:50:45;;;;;;;;;9.60;9.00;;;;;35.38;96.50;97501.69;6242577;28;97031;-73
2023/07/25 09:53:51;;;;;;;;;8.40;7.40;;;;;35.58;96.68;97499.00;6246721;27;98632;-73
2023/07/25 09:56:55;;;;;;;;;8.00;7.00;;;;;35.67;92.54;97490.91;6264880;27;96759;-73
2023/07/25 09:59:59;;;;;;;;;8.60;7.00;;;;;35.54;90.73;97495.44;6267690;27;96536;-73
2023/07/25 10:03:03;;;;;;;;;8.50;8.00;;;;;35.45;91.99;97490.38;6252341;27;99417;-73
2023/07/25 10:06:10;;;;;;;;;8.00;7.60;;;;;35.40;95.03;97492.84;6252650;27;98594;-73
2023/07/25 10:09:14;;;;;;;;;7.00;7.00;;;;;35.46;93.79;97493.97;6259644;27;96355;-72
2023/07/25 10:12:18;;;;;;;;;7.00;7.00;;;;;35.42;93.11;97479.22;6243398;27;98669;-72
2023/07/25 10:15:21;;;;;;;;;7.80;6.80;;;;;35.34;92.39;97495.31;6241727;27;98659;-72
2023/07/25 10:18:26;;;;;;;;;8.00;8.00;;;;;35.13;89.46;97467.53;6262071;27;96307;-72
2023/07/25 10:21:47;;;;;;;;;8.60;8.00;;;;;34.94;90.82;97473.75;6237583;27;98556;-72
2023/07/25 10:24:50;;;;;;;;;8.00;8.00;;;;;34.81;92.80;97467.88;6255947;27;96322;-73
2023/07/25 10:27:58;;;;;;;;;8.00;6.00;;;;;34.72;93.45;97461.97;6251929;27;98454;-71
2023/07/25 10:31:05;;;;;;;;;8.00;7.00;;;;;34.63;94.31;97454.03;6247961;27;96814;-72
2023/07/25 10:34:16;;;;;;;;;7.00;7.00;;;;;34.66;95.67;97452.41;6254925;27;96269;-72
2023/07/25 10:37:27;;;;;;;;;7.60;7.40;;;;;34.76;98.04;97443.13;6249160;27;96341;-72
2023/07/25 10:40:51;;;;;;;;;6.00;6.00;;;;;34.84;96.51;97449.47;6239811;27;97216;-72
2023/07/25 10:43:56;;;;;;;;;5.50;5.00;;;;;34.78;93.15;97446.31;6255261;27;96843;-72
2023/07/25 10:47:02;;;;;;;;;7.40;7.00;;;;;34.69;90.70;97458.00;6246896;27;97101;-73
2023/07/25 10:50:07;;;;;;;;;6.00;6.00;;;;;34.46;88.06;97457.78;6269873;27;96999;-73
2023/07/25 10:53:16;;;;;;;;;8.00;8.00;;;;;34.24;92.57;97451.59;6243874;27;96732;-73
2023/07/25 10:56:19;;;;;;;;;6.80;6.00;;;;;34.08;94.82;97442.91;6238481;28;98374;-73
2023/07/25 10:59:23;;;;;;;;;8.00;7.75;;;;;33.91;92.01;97439.06;6246583;28;96453;-72
2023/07/25 11:02:33;;;;;;;;;7.00;6.00;;;;;33.47;96.22;97385.84;6247344;28;98440;-73
2023/07/25 11:05:37;;;;;;;;;6.00;5.00;;;;;33.55;100.00;97420.91;6237345;27;97060;-73
2023/07/25 11:08:42;;;;;;;;;6.80;6.80;;;;;33.44;100.00;97417.38;6261018;27;96293;-73
2023/07/25 11:11:47;;;;;;;;;7.80;6.80;;;;;33.31;100.00;97411.47;6257963;27;98991;-73
2023/07/25 11:14:51;;;;;;;;;7.80;6.00;;;;;33.14;100.00;97391.94;6257298;27;96290;-72
2023/07/25 11:17:56;;;;;;;;;8.00;7.00;;;;;32.97;100.00;97393.63;6258324;27;97102;-72
2023/07/25 11:21:00;;;;;;;;;7.00;6.40;;;;;32.96;100.00;97406.00;6255686;27;98598;-72
2023/07/25 11:24:06;;;;;;;;;5.40;5.00;;;;;32.61;100.00;97395.72;6256167;27;96411;-72
2023/07/25 11:27:09;;;;;;;;;5.60;5.60;;;;;32.58;100.00;97400.13;6252298;27;96379;-72
2023/07/25 11:30:15;;;;;;;;;7.00;5.80;;;;;32.27;100.00;97389.81;6258147;27;96760;-72
2023/07/25 11:33:19;;;;;;;;;7.00;6.50;;;;;32.20;100.00;97385.06;6242918;27;96878;-72
2023/07/25 11:36:22;;;;;;;;;8.00;7.00;;;;;32.17;100.00;97374.69;6257356;27;96946;-72
2023/07/25 11:39:27;;;;;;;;;8.00;7.00;;;;;31.96;100.00;97357.19;6258499;27;96325;-72
2023/07/25 11:42:30;;;;;;;;;6.60;6.00;;;;;31.88;100.00;97367.50;6261149;27;97589;-72
2023/07/25 11:45:33;;;;;;;;;5.25;5.25;;;;;31.74;100.00;97348.81;6262951;27;99348;-72
2023/07/25 11:48:37;;;;;;;;;7.75;5.25;;;;;31.54;100.00;97346.78;6269463;27;96336;-73
2023/07/25 11:51:41;;;;;;;;;6.00;5.00;;;;;31.35;100.00;97340.41;6266997;27;96365;-72
2023/07/25 11:54:46;;;;;;;;;5.00;5.00;;;;;31.18;100.00;97334.81;6264864;27;96342;-72
2023/07/25 11:57:50;;;;;;;;;6.20;6.20;;;;;31.06;100.00;97332.38;6267740;27;96358;-72
2023/07/25 12:00:54;;;;;;;;;7.00;6.00;;;;;30.95;100.00;97321.19;6235103;27;96866;-72
2023/07/25 12:04:00;;;;;;;;;7.00;6.00;;;;;30.88;100.00;97318.38;6252451;27;96374;-72
2023/07/25 12:07:04;;;;;;;;;6.00;5.00;;;;;30.85;100.00;97313.59;6254593;27;96370;-72
2023/07/25 12:10:09;;;;;;;;;8.40;7.00;;;;;30.90;100.00;97307.66;6250784;27;96301;-72
2023/07/25 12:13:12;;;;;;;;;4.40;4.40;;;;;30.91;100.00;97298.91;6253818;27;96566;-72
2023/07/25 12:16:32;;;;;;;;;5.60;5.60;;;;;30.97;100.00;97299.34;6262353;27;96280;-72
2023/07/25 12:19:37;;;;;;;;;5.00;5.00;;;;;31.16;100.00;97306.56;6254380;27;96653;-72
2023/07/25 12:22:40;;;;;;;;;6.80;6.00;;;;;31.17;100.00;97305.38;6266718;27;96605;-72
2023/07/25 12:25:45;;;;;;;;;6.00;5.00;;;;;31.22;100.00;97316.91;6268403;27;96836;-73
2023/07/25 12:28:50;;;;;;;;;7.00;6.40;;;;;31.13;100.00;97308.13;6266999;27;96482;-74
2023/07/25 12:31:55;;;;;;;;;7.40;7.00;;;;;31.17;100.00;97310.94;6265259;27;96570;-74
2023/07/25 12:35:02;;;;;;;;;5.00;5.00;;;;;31.15;100.00;97305.75;6264390;27;96485;-73
2023/07/25 12:38:06;;;;;;;;;7.00;6.00;;;;;31.05;100.00;97295.38;6264330;27;96656;-74
2023/07/25 12:41:11;;;;;;;;;6.00;5.25;;;;;30.88;100.00;97291.38;6264303;27;98463;-74
2023/07/25 12:44:15;;;;;;;;;8.00;6.00;;;;;30.82;100.00;97289.34;6264531;27;98404;-73
2023/07/25 12:47:18;;;;;;;;;5.00;5.00;;;;;30.61;100.00;97292.06;6264925;27;96358;-74
2023/07/25 12:50:22;;;;;;;;;6.00;6.00;;;;;30.15;100.00;97258.47;6264224;27;96299;-73
2023/07/25 12:53:25;;;;;;;;;7.00;6.00;;;;;30.08;100.00;97300.91;6263668;27;98433;-72
2023/07/25 12:56:30;;;;;;;;;6.00;4.00;;;;;29.84;100.00;97301.50;6264358;27;96892;-73
2023/07/25 12:59:34;;;;;;;;;4.40;4.00;;;;;29.63;100.00;97305.72;6264350;27;96252;-73
2023/07/25 13:02:38;;;;;;;;;4.60;4.00;;;;;29.36;100.00;97317.38;6265437;27;96599;-74
2023/07/25 13:05:42;;;;;;;;;5.00;5.00;;;;;29.00;100.00;97325.31;6259970;27;96876;-73
2023/07/25 13:08:45;;;;;;;;;6.50;5.50;;;;;28.69;100.00;97315.44;6247237;27;96324;-74
2023/07/25 13:11:51;;;;;;;;;5.60;4.60;;;;;28.51;100.00;97316.38;6240268;28;96552;-73
2023/07/25 13:14:55;;;;;;;;;3.75;3.75;;;;;28.28;100.00;97311.75;6229527;27;98376;-74
2023/07/25 13:17:59;;;;;;;;;4.00;3.75;;;;;27.97;100.00;97279.63;6265483;27;96275;-74
2023/07/25 13:21:02;;;;;;;;;6.00;4.00;;;;;28.03;100.00;97296.72;6264414;27;96319;-74
2023/07/25 13:24:06;;;;;;;;;4.75;4.00;;;;;27.95;100.00;97297.81;6262607;27;96458;-73
2023/07/25 13:27:11;;;;;;;;;5.00;4.00;;;;;27.73;100.00;97296.66;6256174;27;98481;-73
2023/07/25 13:30:14;;;;;;;;;4.80;4.00;;;;;27.57;100.00;97305.13;6271248;27;98368;-73
2023/07/25 13:33:18;;;;;;;;;6.00;5.40;;;;;27.34;100.00;97318.16;6259923;27;96245;-72
2023/07/25 13:36:22;;;;;;;;;5.50;4.50;;;;;27.07;100.00;97319.25;6269194;27;98466;-73
2023/07/25 13:39:25;;;;;;;;;5.75;4.00;;;;;26.89;100.00;97340.22;6267663;27;96615;-73
2023/07/25 13:42:31;;;;;;;;;4.00;4.00;;;;;26.41;100.00;97334.09;6247611;27;97069;-73
2023/07/25 13:45:35;;;;;;;;;5.00;5.00;;;;;26.06;100.00;97338.81;6249401;27;96334;-73
2023/07/25 13:48:55;;;;;;;;;6.40;5.00;;;;;25.85;100.00;97350.19;6249257;27;96993;-73
2023/07/25 13:51:58;;;;;;;;;7.00;6.00;;;;;25.67;100.00;97346.16;6259916;27;96318;-72
2023/07/25 13:55:07;;;;;;;;;5.00;5.00;;;;;25.50;100.00;97350.06;6255664;27;96213;-72
2023/07/25 13:58:12;;;;;;;;;6.40;5.00;;;;;25.43;100.00;97371.97;6263639;27;96552;-72
2023/07/25 14:01:33;;;;;;;;;6.00;6.00;;;;;25.34;100.00;97361.09;6264269;27;96186;-72
2023/07/25 14:04:39;;;;;;;;;7.00;7.00;;;;;25.32;100.00;97368.91;6249599;27;96321;-72
2023/07/25 14:07:43;;;;;;;;;6.00;5.20;;;;;25.30;100.00;97362.16;6254311;27;96287;-72
2023/07/25 14:10:46;;;;;;;;;4.75;3.75;;;;;25.31;100.00;97372.06;6251415;27;96748;-73
2023/07/25 14:13:52;;;;;;;;;4.67;4.00;;;;;25.22;100.00;97374.94;6265741;27;96417;-73
2023/07/25 14:16:55;;;;;;;;;4.00;4.00;;;;;25.15;100.00;97387.75;6250900;27;96361;-72